Terminal Aerodrome Forecast
Issued by NWS

Home | Current Version | Previous Version | Text Only | Print | Product List | Glossary On
Versions: 1 2 3 4 5 6 7 8 9 10 11 12 13 14
000
FTUS42 KMLB 312300
TAFTIX
TAF
KTIX 312339Z 0100/0124 29004KT P6SM SKC
     FM011000 27013G20KT P6SM SKC
     FM011400 29019G29KT P6SM SKC
      AMD NOT SKED 0101/0111=

USA.gov is the U.S. government's official web portal to all federal, state and local government web resources and services.